Time;durP1;ratioP1;P1;durP2;ratioP2;P2;SDS_P1;SDS_P2;PMS_P1;PMS_P2;Temp;Humidity;BMP_temperature;BMP_pressure;BME280_temperature;BME280_humidity;BME280_pressure;Samples;Min_cycle;Max_cycle;Signal;HPM_P1;HPM_P2
2021/06/14 00:00:19;;;;;;;12.35;6.72;;;19.50;99.90;;;;;;5088620;28;20164;-62
2021/06/14 00:02:45;;;;;;;11.18;6.28;;;19.60;99.90;;;;;;5088719;28;20160;-62
2021/06/14 00:05:16;;;;;;;10.98;5.75;;;19.60;99.90;;;;;;5085980;28;20322;-62
2021/06/14 00:07:42;;;;;;;9.98;5.80;;;19.30;99.90;;;;;;5088406;28;20222;-62
2021/06/14 00:10:10;;;;;;;8.50;6.10;;;19.20;99.90;;;;;;5088503;28;20169;-62
2021/06/14 00:12:36;;;;;;;8.48;6.03;;;19.10;99.90;;;;;;5087918;28;20188;-62
2021/06/14 00:15:04;;;;;;;17.05;7.07;;;19.20;99.90;;;;;;5085550;28;20224;-62
2021/06/14 00:17:30;;;;;;;10.15;6.78;;;19.20;99.90;;;;;;5087557;28;20156;-62
2021/06/14 00:19:56;;;;;;;13.90;7.18;;;19.70;99.90;;;;;;5087992;28;20168;-62
2021/06/14 00:22:21;;;;;;;8.95;6.38;;;19.60;99.90;;;;;;5088295;28;20224;-62
2021/06/14 00:24:47;;;;;;;7.68;6.85;;;19.50;99.90;;;;;;5085740;28;20152;-62
2021/06/14 00:27:13;;;;;;;11.57;7.15;;;19.20;99.90;;;;;;5087514;28;20168;-62
2021/06/14 00:29:39;;;;;;;10.90;6.55;;;19.10;99.90;;;;;;5087969;28;20540;-62
2021/06/14 00:32:06;;;;;;;8.60;6.05;;;19.00;99.90;;;;;;5087963;28;20188;-62
2021/06/14 00:34:31;;;;;;;8.77;5.95;;;19.00;99.90;;;;;;5085226;28;20630;-62
2021/06/14 00:36:57;;;;;;;8.77;6.72;;;18.90;99.90;;;;;;5088495;28;20162;-62
2021/06/14 00:39:23;;;;;;;9.23;6.70;;;19.00;99.90;;;;;;5087667;28;20156;-62
2021/06/14 00:41:48;;;;;;;11.00;7.03;;;19.10;99.90;;;;;;5087404;28;20164;-62
2021/06/14 00:44:14;;;;;;;12.02;6.93;;;19.00;99.90;;;;;;5086904;28;20167;-63
2021/06/14 00:46:40;;;;;;;9.45;6.80;;;18.90;99.90;;;;;;5086063;28;20239;-62
2021/06/14 00:49:05;;;;;;;11.98;7.22;;;18.90;99.90;;;;;;5087022;28;20525;-62
2021/06/14 00:51:31;;;;;;;11.77;7.07;;;18.80;99.90;;;;;;5087184;28;20732;-62
2021/06/14 00:54:00;;;;;;;12.02;7.78;;;19.00;99.90;;;;;;5087645;28;20183;-62
2021/06/14 00:56:26;;;;;;;10.63;7.82;;;19.30;99.90;;;;;;5084199;28;20617;-62
2021/06/14 00:58:52;;;;;;;14.02;8.75;;;19.20;99.90;;;;;;5087616;28;20160;-62
2021/06/14 01:01:18;;;;;;;15.13;9.35;;;19.10;99.90;;;;;;5086761;28;20289;-62
2021/06/14 01:03:44;;;;;;;11.57;8.50;;;19.00;99.90;;;;;;5087393;28;20168;-62
2021/06/14 01:06:12;;;;;;;14.10;8.07;;;18.90;99.90;;;;;;5083532;28;20160;-62
2021/06/14 01:08:41;;;;;;;16.45;9.13;;;18.90;99.90;;;;;;5086131;28;20194;-62
2021/06/14 01:11:38;;;;;;;16.30;8.77;;;19.00;99.90;;;;;;5087042;28;20164;-62
2021/06/14 01:14:23;;;;;;;10.90;8.23;;;18.90;99.90;;;;;;5087437;28;20171;-62
2021/06/14 01:17:03;;;;;;;14.35;8.77;;;18.60;99.90;;;;;;5086459;28;20235;-61
2021/06/14 01:19:51;;;;;;;13.90;8.82;;;18.60;99.90;;;;;;5087442;28;20160;-62
2021/06/14 01:22:47;;;;;;;10.70;8.55;;;18.50;99.90;;;;;;5087085;28;20168;-62
2021/06/14 01:25:38;;;;;;;14.60;9.05;;;18.50;99.90;;;;;;5084409;28;20175;-62
2021/06/14 01:28:06;;;;;;;18.08;9.07;;;18.60;99.90;;;;;;5086871;28;20231;-62
2021/06/14 01:30:33;;;;;;;13.05;9.10;;;18.60;99.90;;;;;;5085673;28;20221;-62
2021/06/14 01:33:01;;;;;;;11.30;8.60;;;18.60;99.90;;;;;;5085834;28;20217;-62
2021/06/14 01:35:47;;;;;;;15.32;8.70;;;18.70;99.90;;;;;;5084294;28;20160;-63
2021/06/14 01:38:14;;;;;;;9.20;8.20;;;18.80;99.90;;;;;;5086661;28;20164;-62
2021/06/14 01:40:40;;;;;;;13.13;8.07;;;18.70;99.90;;;;;;5086511;28;20156;-62
2021/06/14 01:43:10;;;;;;;16.25;8.00;;;18.60;99.90;;;;;;5086361;28;20175;-62
2021/06/14 01:45:42;;;;;;;13.88;7.60;;;18.40;99.90;;;;;;5084314;28;20167;-62
2021/06/14 01:48:09;;;;;;;14.10;8.68;;;18.30;99.90;;;;;;5086648;28;20165;-62
2021/06/14 01:50:35;;;;;;;15.45;8.45;;;18.30;99.90;;;;;;5086675;28;20225;-62
2021/06/14 01:53:02;;;;;;;11.27;8.50;;;18.40;99.90;;;;;;5086356;28;20242;-62
2021/06/14 01:55:28;;;;;;;13.70;7.88;;;18.50;99.90;;;;;;5083883;28;20160;-62
2021/06/14 01:57:55;;;;;;;9.48;8.10;;;18.40;99.90;;;;;;5086214;28;20167;-62
2021/06/14 02:00:23;;;;;;;12.30;8.30;;;18.20;99.90;;;;;;5086154;28;20227;-62
2021/06/14 02:02:50;;;;;;;12.63;9.45;;;18.50;99.90;;;;;;5086432;28;20160;-62
2021/06/14 02:05:19;;;;;;;12.82;9.02;;;18.40;99.90;;;;;;5083575;28;20163;-62
2021/06/14 02:07:45;;;;;;;12.07;9.95;;;18.20;99.90;;;;;;5084783;28;20219;-62
2021/06/14 02:10:12;;;;;;;13.48;9.30;;;18.00;99.90;;;;;;5086047;28;20202;-62
2021/06/14 02:12:40;;;;;;;16.60;9.68;;;17.90;99.90;;;;;;5086084;28;20233;-62
2021/06/14 02:15:09;;;;;;;10.60;8.98;;;18.20;99.90;;;;;;5083925;28;20179;-62
2021/06/14 02:17:38;;;;;;;15.13;9.05;;;18.00;99.90;;;;;;5086380;28;20160;-62
2021/06/14 02:20:06;;;;;;;19.27;9.50;;;17.90;99.90;;;;;;5086087;28;20563;-62
2021/06/14 02:22:32;;;;;;;12.23;8.45;;;17.80;99.90;;;;;;5086123;28;20156;-62
2021/06/14 02:24:57;;;;;;;9.65;8.70;;;17.60;99.90;;;;;;5083581;28;20207;-62
2021/06/14 02:27:23;;;;;;;15.60;8.60;;;17.60;99.90;;;;;;5085482;28;20171;-62
2021/06/14 02:29:49;;;;;;;10.52;9.10;;;17.50;99.90;;;;;;5086117;28;20711;-62
2021/06/14 02:32:15;;;;;;;15.02;9.27;;;17.60;99.90;;;;;;5085633;28;20207;-62
2021/06/14 02:34:44;;;;;;;13.18;9.27;;;17.50;99.90;;;;;;5083516;28;20255;-62
2021/06/14 02:37:12;;;;;;;15.15;9.65;;;17.40;99.90;;;;;;5085822;28;20163;-62
2021/06/14 02:39:38;;;;;;;18.55;9.75;;;17.40;99.90;;;;;;5086191;28;20197;-62
2021/06/14 02:42:06;;;;;;;12.45;9.45;;;17.40;99.90;;;;;;5085585;28;20164;-62
2021/06/14 02:44:32;;;;;;;16.50;9.65;;;17.50;99.90;;;;;;5083009;28;20617;-62
2021/06/14 02:47:04;;;;;;;17.02;9.43;;;17.60;99.90;;;;;;5086069;28;20156;-62
2021/06/14 02:49:31;;;;;;;15.77;9.43;;;17.60;99.90;;;;;;5085952;28;20172;-62
2021/06/14 02:51:58;;;;;;;13.40;9.15;;;17.50;99.90;;;;;;5084316;28;20218;-62
2021/06/14 02:54:29;;;;;;;18.45;9.55;;;17.60;99.90;;;;;;5084101;28;20152;-63
2021/06/14 02:56:56;;;;;;;16.83;10.25;;;17.40;99.90;;;;;;5085257;28;20188;-62
2021/06/14 02:59:25;;;;;;;15.15;10.50;;;17.40;99.90;;;;;;5085775;28;20191;-62
2021/06/14 03:01:53;;;;;;;13.43;9.90;;;17.60;99.90;;;;;;5084411;28;20164;-62
2021/06/14 03:04:20;;;;;;;16.42;10.30;;;17.40;99.90;;;;;;5084694;28;20152;-62
2021/06/14 03:06:48;;;;;;;13.20;9.43;;;17.20;99.90;;;;;;5084592;28;20274;-62
2021/06/14 03:09:15;;;;;;;10.73;9.20;;;17.00;99.90;;;;;;5085593;28;20293;-61
2021/06/14 03:11:43;;;;;;;12.38;9.30;;;17.00;99.90;;;;;;5085060;28;20168;-61
2021/06/14 03:14:11;;;;;;;15.18;9.90;;;16.90;99.90;;;;;;5085729;28;20240;-62
2021/06/14 03:16:37;;;;;;;13.98;8.90;;;16.80;99.90;;;;;;5083580;28;20177;-62
2021/06/14 03:19:06;;;;;;;17.83;9.07;;;16.70;99.90;;;;;;5089438;28;20744;-62
2021/06/14 03:21:34;;;;;;;14.18;9.65;;;16.60;99.90;;;;;;5089192;28;20266;-62
2021/06/14 03:24:00;;;;;;;17.13;9.30;;;16.60;99.90;;;;;;5089365;28;20171;-62
2021/06/14 03:26:40;;;;;;;12.30;9.10;;;16.60;99.90;;;;;;5086307;28;20168;-61
2021/06/14 03:29:08;;;;;;;16.27;9.48;;;16.70;99.90;;;;;;5089388;28;20603;-62
2021/06/14 03:31:35;;;;;;;22.70;9.60;;;16.90;99.90;;;;;;5088065;28;20182;-61
2021/06/14 03:34:01;;;;;;;14.85;8.95;;;17.00;99.90;;;;;;5089262;28;20211;-61
2021/06/14 03:36:31;;;;;;;21.67;10.43;;;17.00;99.90;;;;;;5086459;28;20160;-61
2021/06/14 03:38:58;;;;;;;25.30;11.70;;;16.90;99.90;;;;;;5089213;28;20217;-62
2021/06/14 03:41:24;;;;;;;17.15;10.10;;;16.80;99.90;;;;;;5088378;28;20168;-61
2021/06/14 03:43:50;;;;;;;19.70;9.57;;;16.80;99.90;;;;;;5089055;28;20176;-61
2021/06/14 03:46:17;;;;;;;14.43;9.35;;;16.70;99.90;;;;;;5086400;28;20164;-62
2021/06/14 03:48:44;;;;;;;11.73;8.85;;;16.60;99.90;;;;;;5089064;28;20168;-62
2021/06/14 03:51:11;;;;;;;13.55;8.82;;;16.60;99.90;;;;;;5088605;28;20176;-62
2021/06/14 03:53:39;;;;;;;12.85;9.13;;;16.60;99.90;;;;;;5088818;28;20591;-62
2021/06/14 03:56:08;;;;;;;20.17;9.38;;;16.60;99.90;;;;;;5086376;28;20164;-62
2021/06/14 03:58:34;;;;;;;15.25;9.00;;;16.60;99.90;;;;;;5088534;28;20164;-62
2021/06/14 04:01:00;;;;;;;13.43;8.90;;;16.50;99.90;;;;;;5088476;28;20190;-62
2021/06/14 04:03:28;;;;;;;17.77;9.23;;;16.50;99.90;;;;;;5088361;28;20168;-62
2021/06/14 04:05:59;;;;;;;14.35;9.40;;;16.60;99.90;;;;;;5085988;28;20163;-62
2021/06/14 04:08:25;;;;;;;23.50;9.38;;;16.80;99.90;;;;;;5088660;28;20157;-62
2021/06/14 04:10:51;;;;;;;16.40;9.75;;;16.80;99.90;;;;;;5088420;28;20207;-62
2021/06/14 04:13:16;;;;;;;13.90;9.70;;;16.80;99.90;;;;;;5088126;28;20261;-62
2021/06/14 04:15:43;;;;;;;14.43;10.13;;;17.00;99.90;;;;;;5086007;28;20176;-62
2021/06/14 04:18:08;;;;;;;16.83;9.40;;;16.80;99.90;;;;;;5088668;28;20206;-61
2021/06/14 04:20:35;;;;;;;12.68;9.23;;;16.90;99.90;;;;;;5088411;28;20164;-62
2021/06/14 04:23:00;;;;;;;19.35;10.13;;;16.70;99.90;;;;;;5088402;28;20157;-62
2021/06/14 04:25:26;;;;;;;21.95;10.00;;;16.60;99.90;;;;;;5085537;28;20167;-62
2021/06/14 04:27:52;;;;;;;15.50;10.18;;;16.80;99.90;;;;;;5088133;28;20172;-63
2021/06/14 04:30:18;;;;;;;13.55;9.68;;;16.90;99.90;;;;;;5087256;28;20247;-62
2021/06/14 04:32:44;;;;;;;16.85;10.18;;;17.10;99.90;;;;;;5087913;28;20199;-62
2021/06/14 04:35:11;;;;;;;14.55;9.57;;;17.00;99.90;;;;;;5084991;28;20213;-62
2021/06/14 04:37:37;;;;;;;13.98;10.20;;;16.90;99.90;;;;;;5088333;28;20164;-62
2021/06/14 04:40:08;;;;;;;18.00;9.80;;;16.90;99.90;;;;;;5087967;28;20167;-62
2021/06/14 04:42:34;;;;;;;12.90;10.15;;;16.80;99.90;;;;;;5087709;28;20164;-62
2021/06/14 04:45:00;;;;;;;11.60;9.52;;;16.80;99.90;;;;;;5085343;28;20167;-62
2021/06/14 04:47:26;;;;;;;17.05;10.40;;;17.00;99.90;;;;;;5087708;28;20246;-62
2021/06/14 04:49:51;;;;;;;14.38;10.02;;;17.20;99.90;;;;;;5088094;28;20206;-62
2021/06/14 04:52:17;;;;;;;30.65;11.20;;;17.30;99.90;;;;;;5086842;28;20301;-62
2021/06/14 04:54:43;;;;;;;14.05;10.18;;;17.40;99.90;;;;;;5085015;28;20408;-62
2021/06/14 04:57:09;;;;;;;19.70;11.27;;;17.30;99.90;;;;;;5087235;28;20538;-63
2021/06/14 04:59:35;;;;;;;13.95;10.20;;;17.20;99.90;;;;;;5087647;28;20160;-62
2021/06/14 05:02:01;;;;;;;19.42;10.38;;;17.40;99.90;;;;;;5087035;28;20171;-62
2021/06/14 05:04:27;;;;;;;21.17;10.65;;;17.40;99.90;;;;;;5085344;28;20190;-62
2021/06/14 05:06:52;;;;;;;27.77;10.55;;;17.40;99.90;;;;;;5086905;28;20161;-62
2021/06/14 05:09:18;;;;;;;13.93;10.00;;;17.40;99.90;;;;;;5087259;28;20168;-62
2021/06/14 05:11:45;;;;;;;19.85;9.82;;;17.40;99.90;;;;;;5086398;28;20172;-62
2021/06/14 05:14:10;;;;;;;17.58;10.07;;;17.50;99.90;;;;;;5086561;28;20195;-62
2021/06/14 05:16:36;;;;;;;17.48;10.00;;;17.80;99.90;;;;;;5084479;28;20160;-62
2021/06/14 05:19:02;;;;;;;19.25;10.43;;;17.90;99.90;;;;;;5087107;28;20160;-62
2021/06/14 05:21:28;;;;;;;14.65;10.57;;;17.90;99.90;;;;;;5086885;28;20160;-63
2021/06/14 05:23:53;;;;;;;16.15;10.10;;;17.90;99.90;;;;;;5087158;28;20164;-62
2021/06/14 05:26:19;;;;;;;16.58;9.70;;;18.00;99.90;;;;;;5084045;28;20175;-62
2021/06/14 05:28:45;;;;;;;16.73;9.73;;;18.00;99.90;;;;;;5086637;28;20236;-62
2021/06/14 05:31:10;;;;;;;21.55;9.07;;;18.10;99.90;;;;;;5086347;28;20171;-62
2021/06/14 05:33:37;;;;;;;14.48;10.27;;;18.20;99.90;;;;;;5086645;28;20192;-62
2021/06/14 05:36:03;;;;;;;20.77;9.35;;;18.40;99.90;;;;;;5084292;28;20259;-62
2021/06/14 05:38:29;;;;;;;22.05;9.73;;;18.50;99.90;;;;;;5086575;28;20160;-62
2021/06/14 05:40:55;;;;;;;17.60;9.80;;;18.60;99.90;;;;;;5085207;28;20176;-62
2021/06/14 05:43:21;;;;;;;18.90;9.82;;;18.70;99.90;;;;;;5086232;28;20176;-62
2021/06/14 05:45:47;;;;;;;20.58;10.27;;;18.80;99.90;;;;;;5083874;28;20243;-62
2021/06/14 05:48:12;;;;;;;26.23;10.45;;;19.00;99.90;;;;;;5086168;28;20160;-62
2021/06/14 05:50:38;;;;;;;20.95;10.20;;;19.00;99.90;;;;;;5086423;28;20178;-62
2021/06/14 05:53:04;;;;;;;18.00;9.65;;;19.10;99.90;;;;;;5086260;28;20216;-61
2021/06/14 05:55:30;;;;;;;16.98;9.60;;;19.40;99.90;;;;;;5083720;28;20165;-62
2021/06/14 05:57:56;;;;;;;14.93;9.30;;;19.20;99.90;;;;;;5086099;28;20198;-62
2021/06/14 06:00:23;;;;;;;18.05;9.40;;;19.40;99.90;;;;;;5086100;28;20171;-62
2021/06/14 06:02:48;;;;;;;13.52;9.57;;;19.50;99.90;;;;;;5086194;28;20171;-62
2021/06/14 06:05:14;;;;;;;13.70;8.15;;;19.40;99.90;;;;;;5083570;28;20224;-62
2021/06/14 06:07:40;;;;;;;22.65;9.57;;;19.40;99.90;;;;;;5086332;28;20168;-62
2021/06/14 06:10:08;;;;;;;20.17;8.68;;;19.50;99.90;;;;;;5086218;28;20220;-62
2021/06/14 06:12:34;;;;;;;47.83;10.75;;;19.60;99.90;;;;;;5085357;28;20215;-62
2021/06/14 06:15:01;;;;;;;30.73;9.88;;;19.60;99.90;;;;;;5083696;28;20167;-62
2021/06/14 06:17:28;;;;;;;21.33;8.98;;;19.90;99.90;;;;;;5085259;28;20160;-62
2021/06/14 06:19:54;;;;;;;14.57;8.48;;;19.90;99.90;;;;;;5086063;28;20251;-62
2021/06/14 06:22:20;;;;;;;41.22;10.68;;;20.00;99.90;;;;;;5084284;28;20172;-62
2021/06/14 06:24:45;;;;;;;20.75;8.93;;;20.20;99.90;;;;;;5083565;28;20225;-62
2021/06/14 06:27:11;;;;;;;27.70;7.72;;;20.30;99.90;;;;;;5085290;28;20187;-62
2021/06/14 06:29:37;;;;;;;24.40;8.48;;;20.20;99.90;;;;;;5086143;28;20171;-62
2021/06/14 06:32:03;;;;;;;19.73;7.45;;;20.20;99.90;;;;;;5085709;28;20184;-62
2021/06/14 06:34:28;;;;;;;16.08;6.50;;;20.50;99.90;;;;;;5083764;28;20203;-62
2021/06/14 06:36:54;;;;;;;13.07;6.53;;;20.30;99.90;;;;;;5085423;28;20179;-62
2021/06/14 06:39:20;;;;;;;15.38;5.70;;;20.40;99.90;;;;;;5085764;28;20171;-62
2021/06/14 06:41:46;;;;;;;14.30;6.60;;;20.70;99.90;;;;;;5085001;28;20164;-61
2021/06/14 06:44:12;;;;;;;9.25;6.50;;;20.80;99.90;;;;;;5085577;28;20160;-63
2021/06/14 06:46:38;;;;;;;13.20;6.82;;;20.80;99.90;;;;;;5083939;28;20152;-61
2021/06/14 06:49:04;;;;;;;15.43;6.35;;;20.80;99.90;;;;;;5085821;28;20167;-62
2021/06/14 06:51:30;;;;;;;12.05;5.03;;;20.90;99.90;;;;;;5085018;28;20168;-62
2021/06/14 06:54:11;;;;;;;18.85;5.72;;;20.90;99.90;;;;;;5089203;28;20206;-62
2021/06/14 06:56:42;;;;;;;17.73;5.68;;;20.60;99.90;;;;;;5086856;28;20539;-62
2021/06/14 06:59:09;;;;;;;12.13;5.57;;;20.40;99.90;;;;;;5089753;28;20691;-62
2021/06/14 07:01:34;;;;;;;11.02;5.43;;;20.40;99.90;;;;;;5089633;28;20164;-62
2021/06/14 07:04:00;;;;;;;8.45;5.63;;;20.50;99.90;;;;;;5089690;28;20231;-62
2021/06/14 07:06:26;;;;;;;13.20;5.55;;;20.60;99.90;;;;;;5085427;28;20171;-62
2021/06/14 07:08:55;;;;;;;11.65;5.00;;;20.90;99.90;;;;;;5089550;28;20163;-62
2021/06/14 07:11:20;;;;;;;10.45;5.50;;;20.80;99.90;;;;;;5089207;28;20180;-62
2021/06/14 07:13:46;;;;;;;12.82;6.10;;;20.80;99.90;;;;;;5087863;28;20196;-62
2021/06/14 07:16:12;;;;;;;9.05;4.72;;;20.90;99.90;;;;;;5086545;28;20578;-62
2021/06/14 07:18:37;;;;;;;15.73;5.18;;;20.90;99.90;;;;;;5089471;28;20172;-62
2021/06/14 07:21:03;;;;;;;10.52;4.85;;;21.00;99.90;;;;;;5089258;28;20191;-62
2021/06/14 07:23:29;;;;;;;11.68;5.18;;;21.10;99.90;;;;;;5088946;28;20186;-62
2021/06/14 07:25:54;;;;;;;9.65;5.10;;;21.30;99.90;;;;;;5086714;28;20174;-62
2021/06/14 07:28:20;;;;;;;13.38;5.38;;;21.50;99.90;;;;;;5088673;28;20195;-62
2021/06/14 07:30:46;;;;;;;12.32;4.57;;;21.60;99.90;;;;;;5089016;28;20221;-62
2021/06/14 07:33:11;;;;;;;11.50;4.80;;;21.50;99.90;;;;;;5088929;28;20195;-62
2021/06/14 07:35:37;;;;;;;6.35;4.00;;;21.50;99.90;;;;;;5086743;28;20262;-62
2021/06/14 07:38:04;;;;;;;8.48;4.63;;;21.40;99.90;;;;;;5089160;28;20172;-62
2021/06/14 07:40:30;;;;;;;8.55;4.25;;;21.50;99.90;;;;;;5088701;28;20223;-62
2021/06/14 07:42:56;;;;;;;9.43;4.78;;;21.50;99.90;;;;;;5088643;28;20175;-62
2021/06/14 07:45:24;;;;;;;10.80;4.50;;;21.60;99.90;;;;;;5086392;28;20175;-62
2021/06/14 07:47:50;;;;;;;9.77;4.43;;;21.70;99.90;;;;;;5088902;28;20153;-62
2021/06/14 07:50:16;;;;;;;10.20;4.38;;;21.90;99.90;;;;;;5088858;28;20172;-62
2021/06/14 07:52:42;;;;;;;10.38;3.88;;;22.10;99.90;;;;;;5088467;28;20279;-62
2021/06/14 07:55:09;;;;;;;6.75;4.00;;;22.30;99.90;;;;;;5086124;28;20168;-62
2021/06/14 07:57:35;;;;;;;6.55;3.47;;;22.40;99.90;;;;;;5088385;28;20168;-62
2021/06/14 08:00:01;;;;;;;6.63;3.53;;;22.50;99.90;;;;;;5088819;28;20163;-62
2021/06/14 08:02:26;;;;;;;9.88;3.95;;;22.50;99.90;;;;;;5088249;28;20225;-62
2021/06/14 08:04:53;;;;;;;9.77;3.75;;;22.60;99.90;;;;;;5084811;28;20168;-62
2021/06/14 08:07:19;;;;;;;8.32;3.72;;;22.60;99.90;;;;;;5088476;28;20167;-62
2021/06/14 08:09:47;;;;;;;5.90;3.28;;;22.60;99.90;;;;;;5088543;28;20193;-62
2021/06/14 08:12:12;;;;;;;10.50;3.83;;;22.70;99.90;;;;;;5087472;28;20200;-62
2021/06/14 08:14:38;;;;;;;12.88;4.00;;;22.90;99.90;;;;;;5085907;28;20368;-62
2021/06/14 08:17:04;;;;;;;6.75;3.92;;;23.00;99.90;;;;;;5088348;28;20695;-62
2021/06/14 08:27:26;;;;;;;7.35;3.00;;;23.10;99.90;;;;;;5087721;28;20183;-62
2021/06/14 08:29:52;;;;;;;6.45;3.13;;;23.30;99.90;;;;;;5088172;28;20164;-62
2021/06/14 08:32:18;;;;;;;8.02;3.88;;;23.10;99.90;;;;;;5087450;28;20184;-62
2021/06/14 08:34:43;;;;;;;7.03;3.20;;;23.10;99.90;;;;;;5085391;28;20160;-62
2021/06/14 08:37:09;;;;;;;9.40;3.35;;;23.20;99.90;;;;;;5085225;28;20232;-62
2021/06/14 08:39:35;;;;;;;11.52;4.05;;;23.20;99.90;;;;;;5088130;28;20186;-62
2021/06/14 08:42:00;;;;;;;8.20;3.22;;;23.20;99.90;;;;;;5087152;28;20187;-62
2021/06/14 08:44:26;;;;;;;7.22;3.13;;;23.20;99.90;;;;;;5085825;28;20164;-62
2021/06/14 08:46:55;;;;;;;7.22;3.25;;;23.40;99.90;;;;;;5087347;28;20183;-62
2021/06/14 08:49:21;;;;;;;6.38;3.13;;;23.40;99.90;;;;;;5087810;28;20186;-62
2021/06/14 08:51:47;;;;;;;13.10;3.70;;;23.50;99.90;;;;;;5086775;28;20199;-62
2021/06/14 08:54:14;;;;;;;7.68;3.15;;;23.60;99.90;;;;;;5086837;28;20176;-62
2021/06/14 08:56:39;;;;;;;8.63;3.58;;;23.70;99.90;;;;;;5085316;28;20160;-61
2021/06/14 08:59:05;;;;;;;5.10;3.17;;;23.70;99.90;;;;;;5087427;28;20168;-62
2021/06/14 09:01:31;;;;;;;4.78;3.17;;;23.80;99.90;;;;;;5086886;28;20582;-62
2021/06/14 09:03:57;;;;;;;7.90;3.80;;;23.90;99.90;;;;;;5087528;28;20160;-62
2021/06/14 09:06:22;;;;;;;8.63;3.22;;;24.00;99.90;;;;;;5084693;28;20653;-62
2021/06/14 09:09:00;;;;;;;6.28;3.70;;;24.00;99.90;;;;;;5086943;28;20170;-62
2021/06/14 09:11:28;;;;;;;6.03;3.22;;;24.20;99.90;;;;;;5086278;28;20179;-61
2021/06/14 09:13:54;;;;;;;11.07;3.10;;;24.20;99.90;;;;;;5085555;28;20202;-61
2021/06/14 09:16:20;;;;;;;6.80;3.70;;;24.20;99.90;;;;;;5084185;28;20196;-61
2021/06/14 09:18:46;;;;;;;13.00;3.80;;;24.20;99.90;;;;;;5087025;28;20180;-62
2021/06/14 09:21:14;;;;;;;5.38;3.40;;;24.20;99.90;;;;;;5086843;28;20198;-62
2021/06/14 09:23:48;;;;;;;8.43;3.15;;;24.20;99.90;;;;;;5086754;28;20221;-62
2021/06/14 09:26:40;;;;;;;6.45;2.92;;;24.40;99.90;;;;;;5083934;28;20201;-62
2021/06/14 09:29:11;;;;;;;5.43;3.47;;;24.50;99.90;;;;;;5085977;28;20243;-62
2021/06/14 09:31:43;;;;;;;6.55;2.90;;;24.40;99.90;;;;;;5086464;28;20185;-62
2021/06/14 09:34:10;;;;;;;8.23;2.58;;;24.60;99.90;;;;;;5086374;28;20217;-62
2021/06/14 09:36:35;;;;;;;7.05;2.95;;;24.80;99.90;;;;;;5084286;28;20165;-62
2021/06/14 09:39:18;;;;;;;12.02;2.88;;;25.00;99.90;;;;;;5086727;28;20684;-62
2021/06/14 09:41:51;;;;;;;9.50;3.35;;;25.10;99.90;;;;;;5084967;28;20267;-62
2021/06/14 09:44:31;;;;;;;6.10;2.90;;;25.00;99.90;;;;;;5085722;28;20730;-62
2021/06/14 09:47:08;;;;;;;9.50;3.20;;;25.00;99.90;;;;;;5085270;28;20173;-62
2021/06/14 09:49:35;;;;;;;10.20;3.22;;;25.00;99.90;;;;;;5086863;28;20152;-62
2021/06/14 09:52:01;;;;;;;9.68;3.15;;;25.20;99.90;;;;;;5086154;28;20242;-62
2021/06/14 09:54:32;;;;;;;5.47;2.60;;;25.10;99.90;;;;;;5084423;28;20152;-62
2021/06/14 09:57:00;;;;;;;14.68;3.00;;;25.20;99.90;;;;;;5086073;28;20213;-62
2021/06/14 09:59:34;;;;;;;8.00;2.88;;;25.20;99.90;;;;;;5086227;28;20186;-62
2021/06/14 10:02:19;;;;;;;14.90;3.28;;;25.40;99.90;;;;;;5086109;28;20174;-62
2021/06/14 10:04:46;;;;;;;10.73;2.88;;;25.50;99.90;;;;;;5083818;28;20300;-62
2021/06/14 10:07:15;;;;;;;11.55;3.28;;;25.80;99.90;;;;;;5086073;28;20166;-62
2021/06/14 10:09:46;;;;;;;5.80;2.72;;;26.00;99.90;;;;;;5086392;28;20157;-62
2021/06/14 10:12:24;;;;;;;7.75;2.80;;;26.00;99.90;;;;;;5085542;28;20255;-62
2021/06/14 10:15:02;;;;;;;11.05;2.80;;;26.10;99.90;;;;;;5083718;28;20665;-62
2021/06/14 10:17:31;;;;;;;10.80;2.65;;;25.90;99.90;;;;;;5085365;28;20179;-62
2021/06/14 10:20:07;;;;;;;8.88;2.63;;;25.80;99.90;;;;;;5086273;28;20161;-62
2021/06/14 10:22:33;;;;;;;6.50;2.90;;;25.90;99.90;;;;;;5085642;28;20172;-62
2021/06/14 10:24:58;;;;;;;5.30;2.50;;;25.90;99.90;;;;;;5083350;28;20186;-62
2021/06/14 10:27:24;;;;;;;7.10;2.67;;;26.10;99.90;;;;;;5084957;28;20167;-62
2021/06/14 10:29:50;;;;;;;5.82;2.50;;;26.20;99.90;;;;;;5085969;28;20535;-62
2021/06/14 10:32:15;;;;;;;6.20;2.67;;;26.20;99.90;;;;;;5085450;28;20179;-62
2021/06/14 10:34:43;;;;;;;6.28;2.58;;;26.40;99.90;;;;;;5083403;28;20160;-62
2021/06/14 10:37:09;;;;;;;11.02;2.80;;;26.30;99.90;;;;;;5085457;28;20209;-62
2021/06/14 10:39:36;;;;;;;5.05;2.40;;;26.50;99.90;;;;;;5085945;28;20183;-62
2021/06/14 10:42:02;;;;;;;6.03;2.30;;;26.50;99.90;;;;;;5085188;28;20164;-62
2021/06/14 10:44:27;;;;;;;7.50;2.50;;;26.60;99.90;;;;;;5083690;28;20198;-62
2021/06/14 10:46:53;;;;;;;5.55;2.20;;;26.60;99.90;;;;;;5084926;28;20223;-62
2021/06/14 10:49:19;;;;;;;7.70;2.58;;;26.60;99.90;;;;;;5085628;28;20186;-62
2021/06/14 10:52:01;;;;;;;4.30;2.38;;;26.60;99.90;;;;;;5085608;28;20272;-62
2021/06/14 10:54:37;;;;;;;5.40;2.45;;;26.80;99.90;;;;;;5083790;28;20172;-62
2021/06/14 10:57:04;;;;;;;3.67;2.33;;;26.90;99.90;;;;;;5085307;28;20302;-62
2021/06/14 10:59:37;;;;;;;4.88;2.50;;;26.90;99.90;;;;;;5085715;28;20160;-62
2021/06/14 11:02:08;;;;;;;2.92;2.45;;;27.10;99.90;;;;;;5084147;28;20192;-62
2021/06/14 11:04:34;;;;;;;11.43;2.38;;;27.10;99.90;;;;;;5083114;28;20188;-62
2021/06/14 11:07:00;;;;;;;4.82;2.75;;;27.10;99.90;;;;;;5085646;28;20156;-62
2021/06/14 11:09:44;;;;;;;6.63;2.75;;;27.10;99.90;;;;;;5085465;28;20164;-62
2021/06/14 11:12:22;;;;;;;3.63;2.53;;;27.40;99.90;;;;;;5084615;28;20187;-62
2021/06/14 11:14:48;;;;;;;3.78;2.53;;;27.50;99.90;;;;;;5083114;28;20160;-62
2021/06/14 11:17:15;;;;;;;6.35;2.70;;;27.80;99.90;;;;;;5085137;28;20243;-62
2021/06/14 11:19:41;;;;;;;5.40;2.83;;;27.90;99.90;;;;;;5085501;28;20160;-62
2021/06/14 11:22:07;;;;;;;7.05;2.55;;;27.60;99.90;;;;;;5085378;28;20168;-62
2021/06/14 11:24:39;;;;;;;7.53;2.50;;;27.70;99.90;;;;;;5082568;28;20199;-63
2021/06/14 11:27:08;;;;;;;4.63;2.60;;;27.70;99.90;;;;;;5084979;28;20658;-62
2021/06/14 11:29:51;;;;;;;7.00;2.60;;;27.50;99.90;;;;;;5085515;28;20634;-62
2021/06/14 11:32:22;;;;;;;6.10;2.40;;;27.60;99.90;;;;;;5085054;28;20253;-62
2021/06/14 11:34:58;;;;;;;5.32;2.70;;;27.90;99.90;;;;;;5083119;28;20157;-62
2021/06/14 11:37:46;;;;;;;5.35;2.50;;;28.00;99.90;;;;;;5085005;28;20239;-62
2021/06/14 11:40:15;;;;;;;11.65;2.88;;;28.20;99.90;;;;;;5088290;28;20191;-62
2021/06/14 11:42:49;;;;;;;8.45;2.67;;;28.00;99.90;;;;;;5088034;28;20252;-62
2021/06/14 11:45:29;;;;;;;8.55;2.40;;;28.00;99.90;;;;;;5086287;28;20214;-62
2021/06/14 11:47:59;;;;;;;5.15;2.80;;;28.10;99.90;;;;;;5088803;28;20617;-62
2021/06/14 11:50:31;;;;;;;7.10;2.50;;;28.30;99.90;;;;;;5088794;28;20160;-62
2021/06/14 11:52:58;;;;;;;9.02;2.95;;;28.70;99.90;;;;;;5088397;28;20230;-62
2021/06/14 11:55:27;;;;;;;7.18;2.60;;;28.70;99.90;;;;;;5086159;28;20160;-62
2021/06/14 11:58:00;;;;;;;4.80;2.67;;;28.90;99.90;;;;;;5088396;28;20172;-62
2021/06/14 12:00:31;;;;;;;7.00;2.72;;;29.00;99.90;;;;;;5088522;28;20172;-62
2021/06/14 12:02:58;;;;;;;6.03;2.80;;;29.00;99.90;;;;;;5088496;28;20174;-62
2021/06/14 12:05:35;;;;;;;5.50;2.38;;;28.90;99.90;;;;;;5086057;28;20233;-62
2021/06/14 12:08:05;;;;;;;7.60;2.50;;;28.90;99.90;;;;;;5088544;28;20168;-62
2021/06/14 12:10:32;;;;;;;5.68;2.17;;;28.80;99.90;;;;;;5087695;28;20402;-62
2021/06/14 12:13:18;;;;;;;3.55;2.05;;;28.80;99.90;;;;;;5087782;28;20187;-62
2021/06/14 12:15:44;;;;;;;4.13;2.25;;;28.70;99.90;;;;;;5086047;28;20168;-62
2021/06/14 12:18:13;;;;;;;4.43;2.20;;;28.50;99.90;;;;;;5088354;28;20168;-62
2021/06/14 12:20:41;;;;;;;8.32;2.83;;;28.60;99.90;;;;;;5088393;28;20590;-62
2021/06/14 12:23:09;;;;;;;5.03;2.30;;;28.90;99.90;;;;;;5088027;28;20194;-62
2021/06/14 12:25:55;;;;;;;3.50;2.17;;;29.20;99.90;;;;;;5085685;28;20559;-62
2021/06/14 12:28:22;;;;;;;4.07;2.17;;;29.40;99.90;;;;;;5087571;28;20194;-62
2021/06/14 12:30:51;;;;;;;6.22;2.03;;;29.30;99.90;;;;;;5088350;28;20167;-62
2021/06/14 12:33:26;;;;;;;10.40;2.25;;;29.00;99.90;;;;;;5087651;28;20676;-62
2021/06/14 12:35:53;;;;;;;4.93;2.17;;;29.10;99.90;;;;;;5085563;28;20160;-62
2021/06/14 12:38:19;;;;;;;8.07;2.63;;;29.40;99.90;;;;;;5087935;28;20163;-62
2021/06/14 12:40:45;;;;;;;4.47;2.20;;;29.80;99.90;;;;;;5088029;28;20164;-62
2021/06/14 12:43:12;;;;;;;4.88;2.10;;;29.60;99.90;;;;;;5087168;28;20176;-62
2021/06/14 12:45:39;;;;;;;3.90;2.25;;;29.60;99.90;;;;;;5085080;28;20181;-62
2021/06/14 12:48:08;;;;;;;8.52;2.47;;;29.90;99.90;;;;;;5088135;28;20527;-62
2021/06/14 12:50:36;;;;;;;6.35;2.45;;;30.20;99.90;;;;;;5085767;28;20225;-62
2021/06/14 12:53:04;;;;;;;5.43;2.08;;;30.60;99.90;;;;;;5087313;28;20407;-62